Time;durP1;ratioP1;P1;durP2;ratioP2;P2;SDS_P1;SDS_P2;PMS_P1;PMS_P2;Temp;Humidity;BMP_temperature;BMP_pressure;BME280_temperature;BME280_humidity;BME280_pressure;Samples;Min_cycle;Max_cycle;Signal;HPM_P1;HPM_P2
2023/09/09 00:01:29;;;;;;;12.20;7.30;;;18.10;99.90;;;;;;4981620;28;20197;-81
2023/09/09 00:03:55;;;;;;;15.90;8.00;;;18.10;99.90;;;;;;4982261;28;20194;-81
2023/09/09 00:06:21;;;;;;;15.23;7.47;;;18.00;99.90;;;;;;4979489;28;20241;-81
2023/09/09 00:08:46;;;;;;;9.70;6.83;;;18.00;99.90;;;;;;4981101;28;20182;-81
2023/09/09 00:11:12;;;;;;;9.70;6.60;;;18.00;99.90;;;;;;4979788;28;20202;-81
2023/09/09 00:13:37;;;;;;;8.80;7.03;;;17.90;99.90;;;;;;4979428;28;20206;-81
2023/09/09 00:16:03;;;;;;;16.83;6.97;;;17.90;99.90;;;;;;4978816;28;20212;-81
2023/09/09 00:18:29;;;;;;;9.70;6.97;;;17.90;99.90;;;;;;4982092;28;20198;-81
2023/09/09 00:20:55;;;;;;;10.73;5.93;;;17.80;99.90;;;;;;4980279;28;20206;-80
2023/09/09 00:23:21;;;;;;;11.13;7.27;;;17.80;99.90;;;;;;4981703;28;20224;-80
2023/09/09 00:25:46;;;;;;;9.67;6.63;;;17.80;99.90;;;;;;4982375;28;20186;-81
2023/09/09 00:28:13;;;;;;;7.90;6.83;;;17.80;99.90;;;;;;4988692;28;20185;-80
2023/09/09 00:30:39;;;;;;;10.00;7.00;;;17.70;99.90;;;;;;4981107;28;20225;-81
2023/09/09 00:33:07;;;;;;;13.30;7.03;;;17.70;99.90;;;;;;4978206;28;20213;-81
2023/09/09 00:35:33;;;;;;;7.83;6.83;;;17.70;99.90;;;;;;4979105;28;20274;-81
2023/09/09 00:37:59;;;;;;;10.03;6.83;;;17.70;99.90;;;;;;4978549;28;20182;-80
2023/09/09 00:40:24;;;;;;;9.03;6.77;;;17.70;99.90;;;;;;4981229;28;20182;-80
2023/09/09 00:42:50;;;;;;;13.10;7.70;;;17.60;99.90;;;;;;4980042;28;20185;-81
2023/09/09 00:45:16;;;;;;;9.43;6.83;;;17.60;99.90;;;;;;4978590;28;20264;-81
2023/09/09 00:47:42;;;;;;;11.43;7.33;;;17.60;99.90;;;;;;4978822;28;20557;-80
2023/09/09 00:50:13;;;;;;;10.67;7.10;;;17.60;99.90;;;;;;4980301;28;20175;-81
2023/09/09 00:52:40;;;;;;;9.77;7.33;;;17.60;99.90;;;;;;4980189;28;20181;-80
2023/09/09 00:55:07;;;;;;;8.83;6.77;;;17.50;99.90;;;;;;4980045;28;20202;-81
2023/09/09 00:57:33;;;;;;;10.53;7.23;;;17.50;99.90;;;;;;4979701;28;20312;-81
2023/09/09 01:00:01;;;;;;;9.13;6.60;;;17.40;99.90;;;;;;4979257;28;20182;-81
2023/09/09 01:02:27;;;;;;;9.93;6.93;;;17.40;99.90;;;;;;4980848;28;20654;-81
2023/09/09 01:04:52;;;;;;;9.03;6.50;;;17.40;99.90;;;;;;4980815;28;20179;-80
2023/09/09 01:07:18;;;;;;;11.40;7.43;;;17.30;99.90;;;;;;4979265;28;20661;-81
2023/09/09 01:09:43;;;;;;;13.93;6.63;;;17.30;99.90;;;;;;4978427;28;20578;-81
2023/09/09 01:12:11;;;;;;;10.07;7.10;;;17.20;99.90;;;;;;4980707;28;20189;-82
2023/09/09 01:14:40;;;;;;;8.93;7.50;;;17.20;99.90;;;;;;4980086;28;20580;-81
2023/09/09 01:17:07;;;;;;;10.27;7.20;;;17.10;99.90;;;;;;4979825;28;20497;-81
2023/09/09 01:19:33;;;;;;;10.37;7.33;;;17.10;99.90;;;;;;4980388;28;20181;-81
2023/09/09 01:22:03;;;;;;;9.40;7.43;;;17.10;99.90;;;;;;4979588;28;20190;-81
2023/09/09 01:24:28;;;;;;;8.43;7.27;;;17.10;99.90;;;;;;4978007;28;20186;-81
2023/09/09 01:26:54;;;;;;;12.03;7.67;;;17.10;99.90;;;;;;4979336;28;20213;-81
2023/09/09 01:29:19;;;;;;;9.63;7.70;;;17.10;99.90;;;;;;4981036;28;20265;-82
2023/09/09 01:31:45;;;;;;;10.43;6.80;;;17.10;99.90;;;;;;4983978;28;20201;-81
2023/09/09 01:34:10;;;;;;;9.67;6.97;;;17.00;99.90;;;;;;4984086;28;20210;-82
2023/09/09 01:36:36;;;;;;;10.07;6.80;;;17.10;99.90;;;;;;4983574;28;20182;-80
2023/09/09 01:39:02;;;;;;;9.23;6.90;;;17.10;99.90;;;;;;4985997;28;20217;-80
2023/09/09 01:41:28;;;;;;;12.67;6.97;;;17.00;99.90;;;;;;4986684;28;20206;-81
2023/09/09 01:43:53;;;;;;;10.57;7.80;;;16.90;99.90;;;;;;4989059;28;20182;-81
2023/09/09 01:46:19;;;;;;;10.37;6.80;;;16.90;99.90;;;;;;4986988;28;20186;-81
2023/09/09 01:48:44;;;;;;;12.57;7.10;;;16.90;99.90;;;;;;4987824;28;20214;-81
2023/09/09 01:51:10;;;;;;;11.73;7.03;;;17.10;99.90;;;;;;4971480;28;20199;-81
2023/09/09 01:53:36;;;;;;;15.53;7.03;;;16.70;99.90;;;;;;4968851;28;20293;-81
2023/09/09 01:56:01;;;;;;;10.20;6.33;;;16.80;99.90;;;;;;4973738;28;20214;-81
2023/09/09 01:58:27;;;;;;;13.93;6.90;;;16.70;99.90;;;;;;4987394;28;20198;-81
2023/09/09 02:00:52;;;;;;;11.80;7.10;;;16.70;99.90;;;;;;4988462;28;20535;-81
2023/09/09 02:03:18;;;;;;;12.60;7.73;;;16.80;99.90;;;;;;4988421;28;20182;-81
2023/09/09 02:05:45;;;;;;;11.90;7.53;;;16.80;99.90;;;;;;4987680;28;20178;-81
2023/09/09 02:08:10;;;;;;;9.87;6.97;;;16.80;99.90;;;;;;4988515;28;20591;-81
2023/09/09 02:10:36;;;;;;;12.60;6.27;;;16.80;99.90;;;;;;4986660;28;20212;-82
2023/09/09 02:13:02;;;;;;;8.77;6.77;;;16.70;99.90;;;;;;4988937;28;20229;-81
2023/09/09 02:15:27;;;;;;;7.30;6.53;;;16.70;99.90;;;;;;4986567;28;20203;-81
2023/09/09 02:17:53;;;;;;;7.37;6.30;;;16.60;99.90;;;;;;4988920;28;20190;-80
2023/09/09 02:20:18;;;;;;;10.53;7.10;;;16.50;99.90;;;;;;4987417;28;20170;-81
2023/09/09 02:22:44;;;;;;;8.57;7.00;;;16.50;99.90;;;;;;4989554;28;20282;-81
2023/09/09 02:25:09;;;;;;;9.77;7.00;;;16.50;99.90;;;;;;4988768;28;20184;-81
2023/09/09 02:27:35;;;;;;;8.77;7.23;;;16.50;99.90;;;;;;4989359;28;20174;-81
2023/09/09 02:30:01;;;;;;;14.50;6.60;;;16.50;99.90;;;;;;4990442;28;20185;-81
2023/09/09 02:32:27;;;;;;;9.33;6.20;;;16.40;99.90;;;;;;4989677;28;20209;-81
2023/09/09 02:34:52;;;;;;;12.27;6.70;;;16.40;99.90;;;;;;4992517;28;20672;-81
2023/09/09 02:37:20;;;;;;;9.17;6.10;;;16.40;99.90;;;;;;4994299;28;20293;-81
2023/09/09 02:39:47;;;;;;;9.43;6.00;;;16.30;99.90;;;;;;4991347;28;20221;-81
2023/09/09 02:42:15;;;;;;;11.37;5.93;;;16.40;99.90;;;;;;4982638;28;20202;-82
2023/09/09 02:44:43;;;;;;;8.83;6.20;;;16.30;99.90;;;;;;4982071;28;20182;-81
2023/09/09 02:47:10;;;;;;;8.93;6.30;;;16.30;99.90;;;;;;4982318;28;20193;-82
2023/09/09 02:49:36;;;;;;;9.80;6.53;;;16.20;99.90;;;;;;4982303;28;20258;-81
2023/09/09 02:52:03;;;;;;;9.43;6.53;;;16.20;99.90;;;;;;4980812;28;20229;-81
2023/09/09 02:54:28;;;;;;;8.23;6.70;;;16.20;99.90;;;;;;4980386;28;20222;-81
2023/09/09 02:56:54;;;;;;;10.87;7.00;;;16.20;99.90;;;;;;4979940;28;20182;-81
2023/09/09 02:59:19;;;;;;;11.37;6.60;;;16.20;99.90;;;;;;4982075;28;20206;-82
2023/09/09 03:01:45;;;;;;;15.03;6.00;;;16.20;99.90;;;;;;4981985;28;20221;-82
2023/09/09 03:04:11;;;;;;;11.77;7.33;;;16.20;99.90;;;;;;4981828;28;20186;-81
2023/09/09 03:06:37;;;;;;;9.70;6.60;;;16.40;99.90;;;;;;4982117;28;20233;-82
2023/09/09 03:09:03;;;;;;;8.80;6.00;;;16.20;99.90;;;;;;4982547;28;20281;-81
2023/09/09 03:11:29;;;;;;;8.30;5.73;;;16.20;99.90;;;;;;4981357;28;20210;-81
2023/09/09 03:13:54;;;;;;;19.23;6.70;;;16.20;99.90;;;;;;4981030;28;20213;-81
2023/09/09 03:16:20;;;;;;;7.40;6.57;;;16.10;99.90;;;;;;4982309;28;20603;-82
2023/09/09 03:18:45;;;;;;;7.90;6.13;;;16.10;99.90;;;;;;4982607;28;20186;-81
2023/09/09 03:21:11;;;;;;;7.00;6.30;;;16.10;99.90;;;;;;4981273;28;20199;-83
2023/09/09 03:23:36;;;;;;;11.30;6.47;;;16.10;99.90;;;;;;4979615;28;20175;-82
2023/09/09 03:26:02;;;;;;;14.33;7.00;;;16.00;99.90;;;;;;4981004;28;20205;-81
2023/09/09 03:28:28;;;;;;;10.57;7.10;;;16.10;99.90;;;;;;4981821;28;20182;-81
2023/09/09 03:30:58;;;;;;;11.17;6.60;;;16.10;99.90;;;;;;4979512;28;20202;-81
2023/09/09 03:33:26;;;;;;;8.53;6.07;;;16.00;99.90;;;;;;4980547;28;20248;-81
2023/09/09 03:35:52;;;;;;;12.23;7.50;;;16.10;99.90;;;;;;4980962;28;20179;-81
2023/09/09 03:38:17;;;;;;;11.37;6.67;;;16.00;99.90;;;;;;4981307;28;20187;-82
2023/09/09 03:40:43;;;;;;;10.77;6.73;;;16.00;99.90;;;;;;4981232;28;20249;-82
2023/09/09 03:43:09;;;;;;;9.80;6.97;;;16.00;99.90;;;;;;4980053;28;20229;-81
2023/09/09 03:45:34;;;;;;;9.67;6.37;;;15.90;99.90;;;;;;4979750;28;20170;-82
2023/09/09 03:48:00;;;;;;;10.17;7.00;;;16.00;99.90;;;;;;4981556;28;20529;-81
2023/09/09 03:50:25;;;;;;;9.80;6.73;;;16.00;99.90;;;;;;4978868;28;20174;-81
2023/09/09 03:52:51;;;;;;;10.17;6.30;;;16.00;99.90;;;;;;4979004;28;20245;-81
2023/09/09 03:55:17;;;;;;;11.60;5.93;;;16.00;99.90;;;;;;4979241;28;20291;-81
2023/09/09 03:57:43;;;;;;;14.03;6.37;;;16.00;99.90;;;;;;4979539;28;20543;-81
2023/09/09 04:00:09;;;;;;;11.87;5.80;;;16.00;99.90;;;;;;4979023;28;20181;-81
2023/09/09 04:02:35;;;;;;;15.33;6.30;;;15.90;99.90;;;;;;4978753;28;20218;-81
2023/09/09 04:05:01;;;;;;;9.80;5.90;;;15.80;99.90;;;;;;4978635;28;20182;-81
2023/09/09 04:07:26;;;;;;;10.90;6.50;;;15.80;99.90;;;;;;4979939;28;20228;-81
2023/09/09 04:09:55;;;;;;;6.33;5.70;;;15.80;99.90;;;;;;4978736;28;20534;-80
2023/09/09 04:12:20;;;;;;;10.83;7.20;;;15.80;99.90;;;;;;4980218;28;20194;-81
2023/09/09 04:14:46;;;;;;;12.03;6.67;;;15.70;99.90;;;;;;4980430;28;20213;-81
2023/09/09 04:17:11;;;;;;;10.13;6.40;;;15.70;99.90;;;;;;4979743;28;20188;-82
2023/09/09 04:19:37;;;;;;;7.43;6.13;;;15.70;99.90;;;;;;4979067;28;20198;-82
2023/09/09 04:22:02;;;;;;;10.10;5.90;;;15.70;99.90;;;;;;4979803;28;20202;-81
2023/09/09 04:24:28;;;;;;;9.87;6.20;;;15.70;99.90;;;;;;4980947;28;20186;-81
2023/09/09 04:26:54;;;;;;;12.73;6.60;;;15.80;99.90;;;;;;4981244;28;20210;-82
2023/09/09 04:29:20;;;;;;;12.17;6.33;;;15.70;99.90;;;;;;4980323;28;20178;-81
2023/09/09 04:31:46;;;;;;;12.17;6.50;;;15.60;99.90;;;;;;4980579;28;20249;-82
2023/09/09 04:34:12;;;;;;;8.87;6.30;;;15.70;99.90;;;;;;4980829;28;20205;-81
2023/09/09 04:36:38;;;;;;;9.80;6.27;;;15.60;99.90;;;;;;4979315;28;20189;-81
2023/09/09 04:39:03;;;;;;;9.97;6.27;;;15.60;99.90;;;;;;4980931;28;20186;-81
2023/09/09 04:41:29;;;;;;;7.80;6.07;;;15.60;99.90;;;;;;4981574;28;20221;-81
2023/09/09 04:43:55;;;;;;;7.67;6.00;;;15.60;99.90;;;;;;4981801;28;20178;-81
2023/09/09 04:46:20;;;;;;;6.50;5.80;;;15.50;99.90;;;;;;4987237;28;20349;-81
2023/09/09 04:48:46;;;;;;;8.80;6.77;;;15.50;99.90;;;;;;4992079;28;20229;-80
2023/09/09 04:51:11;;;;;;;8.23;5.80;;;15.50;99.90;;;;;;4984839;28;20217;-81
2023/09/09 04:53:37;;;;;;;7.90;7.07;;;15.50;99.90;;;;;;4984732;28;20206;-81
2023/09/09 04:56:03;;;;;;;8.40;6.57;;;15.40;99.90;;;;;;4986228;28;20586;-81
2023/09/09 04:58:29;;;;;;;12.40;6.50;;;15.50;99.90;;;;;;4986724;28;20185;-81
2023/09/09 05:00:55;;;;;;;7.80;6.17;;;15.50;99.90;;;;;;4986887;28;20566;-81
2023/09/09 05:03:20;;;;;;;11.53;6.97;;;15.40;99.90;;;;;;4984466;28;20182;-81
2023/09/09 05:05:46;;;;;;;9.40;5.83;;;15.40;99.90;;;;;;4986029;28;20180;-81
2023/09/09 05:08:11;;;;;;;8.00;6.80;;;15.40;99.90;;;;;;4986722;28;20226;-82
2023/09/09 05:10:37;;;;;;;8.60;6.10;;;15.40;99.90;;;;;;4983125;28;20673;-81
2023/09/09 05:13:04;;;;;;;7.00;6.40;;;15.40;99.90;;;;;;4985369;28;20657;-81
2023/09/09 05:15:30;;;;;;;6.97;6.03;;;15.30;99.90;;;;;;4985365;28;20190;-81
2023/09/09 05:17:55;;;;;;;11.73;6.73;;;15.40;99.90;;;;;;4984707;28;20183;-81
2023/09/09 05:20:21;;;;;;;7.13;6.40;;;15.40;99.90;;;;;;4986374;28;20701;-81
2023/09/09 05:22:47;;;;;;;12.37;6.60;;;15.40;99.90;;;;;;4984777;28;20201;-81
2023/09/09 05:25:13;;;;;;;11.03;7.37;;;15.40;99.90;;;;;;4985871;28;20170;-81
2023/09/09 05:27:38;;;;;;;7.80;6.40;;;15.40;99.90;;;;;;4982465;28;20190;-81
2023/09/09 05:30:05;;;;;;;6.73;5.80;;;15.40;99.90;;;;;;4979088;28;20178;-81
2023/09/09 05:32:31;;;;;;;9.47;6.80;;;15.40;99.90;;;;;;4978269;28;20213;-81
2023/09/09 05:34:56;;;;;;;7.00;6.30;;;15.40;99.90;;;;;;4976833;28;20201;-81
2023/09/09 05:37:22;;;;;;;7.83;6.33;;;15.40;99.90;;;;;;4979080;28;20185;-81
2023/09/09 05:39:47;;;;;;;9.10;6.00;;;15.40;99.90;;;;;;4978014;28;20182;-82
2023/09/09 05:42:13;;;;;;;7.27;6.10;;;15.40;99.90;;;;;;4977403;28;20190;-82
2023/09/09 05:44:38;;;;;;;9.40;6.17;;;15.50;99.90;;;;;;4978212;28;20190;-81
2023/09/09 05:47:08;;;;;;;10.87;6.03;;;15.50;99.90;;;;;;4979469;28;20201;-81
2023/09/09 05:49:33;;;;;;;11.80;6.17;;;15.50;99.90;;;;;;4978723;28;20193;-81
2023/09/09 05:51:59;;;;;;;7.37;5.97;;;15.50;99.90;;;;;;4978063;28;20286;-81
2023/09/09 05:54:24;;;;;;;8.73;5.73;;;15.50;99.90;;;;;;4978044;28;20210;-81
2023/09/09 05:56:50;;;;;;;9.30;6.80;;;15.60;99.90;;;;;;4977434;28;20174;-81
2023/09/09 05:59:16;;;;;;;8.40;6.13;;;15.50;99.90;;;;;;4978144;28;20170;-81
2023/09/09 06:01:42;;;;;;;6.60;5.97;;;15.60;99.90;;;;;;4977206;28;20245;-81
2023/09/09 06:04:07;;;;;;;8.37;6.63;;;15.50;99.90;;;;;;4977993;28;20265;-81
2023/09/09 06:06:33;;;;;;;11.03;7.00;;;15.60;99.90;;;;;;4976539;28;20674;-81
2023/09/09 06:08:59;;;;;;;7.67;6.63;;;15.60;99.90;;;;;;4977524;28;20174;-82
2023/09/09 06:11:25;;;;;;;7.93;6.23;;;15.70;99.90;;;;;;4977426;28;20575;-80
2023/09/09 06:13:51;;;;;;;9.83;7.17;;;15.80;99.90;;;;;;4976664;28;20820;-81
2023/09/09 06:16:16;;;;;;;8.47;6.47;;;15.80;99.90;;;;;;4978204;28;20201;-79
2023/09/09 06:18:42;;;;;;;10.73;7.20;;;15.80;99.90;;;;;;4979970;28;20179;-81
2023/09/09 06:21:08;;;;;;;8.73;6.63;;;15.90;99.90;;;;;;4979233;28;22078;-79
2023/09/09 06:23:35;;;;;;;7.93;6.17;;;15.90;99.90;;;;;;4980617;28;20182;-80
2023/09/09 06:26:00;;;;;;;7.40;6.53;;;16.00;99.90;;;;;;4979969;28;20209;-81
2023/09/09 06:28:26;;;;;;;7.47;6.10;;;16.00;99.90;;;;;;4981977;28;20182;-81
2023/09/09 06:30:52;;;;;;;9.37;6.30;;;16.10;99.90;;;;;;4979324;28;20210;-81
2023/09/09 06:33:17;;;;;;;9.07;7.03;;;16.10;99.90;;;;;;4979060;28;20222;-80
2023/09/09 06:35:52;;;;;;;7.20;6.57;;;16.20;99.90;;;;;;4980267;28;20263;-81
2023/09/09 06:38:18;;;;;;;7.03;6.33;;;16.30;99.90;;;;;;4981404;28;20178;-81
2023/09/09 06:40:45;;;;;;;9.67;6.97;;;16.30;99.90;;;;;;4979360;28;20201;-81
2023/09/09 06:43:10;;;;;;;8.33;7.50;;;16.40;99.90;;;;;;4980289;28;20178;-81
2023/09/09 06:45:36;;;;;;;10.63;7.87;;;16.40;99.90;;;;;;4980958;28;20189;-81
2023/09/09 06:48:03;;;;;;;12.67;7.40;;;16.60;99.90;;;;;;4979337;28;20179;-81
2023/09/09 06:50:29;;;;;;;8.20;7.30;;;16.60;99.90;;;;;;4977827;28;20189;-81
2023/09/09 06:52:54;;;;;;;8.47;7.23;;;16.60;99.90;;;;;;4977627;28;20186;-80
2023/09/09 06:55:20;;;;;;;9.87;7.00;;;16.80;99.90;;;;;;4980713;28;20210;-81
2023/09/09 06:57:45;;;;;;;11.07;7.63;;;16.90;99.90;;;;;;4979856;28;20364;-83
2023/09/09 07:00:12;;;;;;;7.60;6.80;;;17.00;99.90;;;;;;4981870;28;20269;-82
2023/09/09 07:02:39;;;;;;;7.50;6.73;;;17.10;99.90;;;;;;4981618;28;20569;-83
2023/09/09 07:05:05;;;;;;;10.53;7.13;;;17.20;99.90;;;;;;4982718;28;20201;-83
2023/09/09 07:07:30;;;;;;;11.73;7.00;;;17.30;99.90;;;;;;4981710;28;20170;-83
2023/09/09 07:09:56;;;;;;;7.37;6.63;;;17.30;99.90;;;;;;4980209;28;20174;-83
2023/09/09 07:12:21;;;;;;;9.13;7.20;;;17.60;99.90;;;;;;4982257;28;20190;-83
2023/09/09 07:14:47;;;;;;;8.97;7.07;;;17.50;99.90;;;;;;4979961;28;20202;-81
2023/09/09 07:17:12;;;;;;;7.70;6.80;;;17.60;99.90;;;;;;4980365;28;20221;-81
2023/09/09 07:19:38;;;;;;;9.33;7.80;;;17.70;99.90;;;;;;4980410;28;20182;-81
2023/09/09 07:22:04;;;;;;;12.03;7.47;;;17.80;99.90;;;;;;4980813;28;20252;-81
2023/09/09 07:24:30;;;;;;;8.57;6.87;;;17.80;99.90;;;;;;4980228;28;20170;-82
2023/09/09 07:26:57;;;;;;;7.30;6.60;;;17.90;99.90;;;;;;4978276;28;20193;-81
2023/09/09 07:29:22;;;;;;;9.43;6.97;;;18.00;99.90;;;;;;4977402;28;20186;-81
2023/09/09 07:31:48;;;;;;;7.50;6.70;;;18.10;99.90;;;;;;4979431;28;20205;-82
2023/09/09 07:34:13;;;;;;;6.93;6.23;;;18.30;99.90;;;;;;4978014;28;20273;-81
2023/09/09 07:36:39;;;;;;;8.50;6.63;;;18.30;99.90;;;;;;4979575;28;20182;-82
2023/09/09 07:39:05;;;;;;;8.77;6.87;;;18.30;99.90;;;;;;4980589;28;20178;-82
2023/09/09 07:41:30;;;;;;;8.63;6.70;;;18.50;99.90;;;;;;4978357;28;20190;-82
2023/09/09 07:43:56;;;;;;;9.83;6.70;;;18.50;99.90;;;;;;4979772;28;20175;-82
2023/09/09 07:46:21;;;;;;;9.60;7.00;;;18.80;99.90;;;;;;4979722;28;20182;-83
2023/09/09 07:48:47;;;;;;;9.17;6.63;;;18.70;99.90;;;;;;4978791;28;20270;-82
2023/09/09 07:51:14;;;;;;;9.00;8.03;;;18.90;99.90;;;;;;4978049;28;20520;-81
2023/09/09 07:53:39;;;;;;;7.80;6.90;;;18.90;99.90;;;;;;4979239;28;20604;-81
2023/09/09 07:56:05;;;;;;;7.53;6.83;;;19.00;99.90;;;;;;4980354;28;20253;-80
2023/09/09 07:58:30;;;;;;;7.67;6.60;;;19.10;99.90;;;;;;4977992;28;20657;-81
2023/09/09 08:01:05;;;;;;;7.87;6.40;;;19.20;99.90;;;;;;4977799;28;20198;-81
2023/09/09 08:03:31;;;;;;;9.40;6.57;;;19.30;99.90;;;;;;4976750;28;20177;-85
2023/09/09 08:06:02;;;;;;;9.50;6.40;;;19.30;99.90;;;;;;4975284;28;20237;-85
2023/09/09 08:08:28;;;;;;;9.87;6.47;;;19.40;99.90;;;;;;4978662;28;20154;-85
2023/09/09 08:10:54;;;;;;;9.83;6.37;;;19.50;99.90;;;;;;4976800;28;20703;-84
2023/09/09 08:13:19;;;;;;;12.40;6.80;;;19.60;99.90;;;;;;4976101;28;20209;-85
2023/09/09 08:15:45;;;;;;;8.00;6.17;;;19.70;99.90;;;;;;4977151;28;20197;-85
2023/09/09 08:18:11;;;;;;;9.70;6.50;;;20.00;99.90;;;;;;4976286;28;20236;-85
2023/09/09 08:20:37;;;;;;;6.83;5.80;;;19.90;99.90;;;;;;4976047;28;20190;-84
2023/09/09 08:23:03;;;;;;;7.27;5.40;;;20.00;99.90;;;;;;4977565;28;20212;-85
2023/09/09 08:25:32;;;;;;;7.87;5.80;;;20.10;99.90;;;;;;4977149;28;20174;-84
2023/09/09 08:27:59;;;;;;;8.83;6.47;;;20.10;99.90;;;;;;4975616;28;20557;-85
2023/09/09 08:30:25;;;;;;;6.73;6.03;;;20.30;99.90;;;;;;4977688;28;20531;-84
2023/09/09 08:32:51;;;;;;;14.20;6.43;;;20.80;99.90;;;;;;4976393;28;20728;-84
2023/09/09 08:35:16;;;;;;;10.47;6.50;;;20.40;99.90;;;;;;4975352;28;20202;-85
2023/09/09 08:37:42;;;;;;;7.00;6.30;;;20.50;99.90;;;;;;4975253;28;20178;-85
2023/09/09 08:40:08;;;;;;;10.37;6.53;;;20.50;99.90;;;;;;4974899;28;20213;-84
2023/09/09 08:42:59;;;;;;;10.37;7.17;;;20.60;99.90;;;;;;4975804;28;20244;-84
2023/09/09 08:45:43;;;;;;;9.23;6.77;;;20.70;99.90;;;;;;4975619;28;20175;-84
2023/09/09 08:48:16;;;;;;;10.03;6.03;;;20.80;99.90;;;;;;4975450;28;20202;-85
2023/09/09 08:50:44;;;;;;;10.47;7.73;;;21.00;99.90;;;;;;4975751;28;20194;-84
2023/09/09 08:53:16;;;;;;;8.57;6.53;;;21.00;99.90;;;;;;4975501;28;20642;-85
2023/09/09 08:55:41;;;;;;;11.70;7.50;;;21.10;99.90;;;;;;4976600;28;20608;-84
2023/09/09 08:58:07;;;;;;;8.67;6.90;;;21.30;99.90;;;;;;4976054;28;20170;-84
2023/09/09 09:00:34;;;;;;;7.30;6.60;;;21.20;99.90;;;;;;4982369;28;20174;-85
2023/09/09 09:03:01;;;;;;;11.13;6.30;;;21.40;99.90;;;;;;4988276;28;20178;-85
2023/09/09 09:05:31;;;;;;;8.70;6.57;;;21.30;99.90;;;;;;4983023;28;20178;-84
2023/09/09 09:07:57;;;;;;;7.43;6.57;;;21.50;99.90;;;;;;4975652;28;20724;-85
2023/09/09 09:10:23;;;;;;;8.90;6.70;;;21.60;99.90;;;;;;4975737;28;20708;-85
2023/09/09 09:12:49;;;;;;;7.03;6.33;;;21.70;99.90;;;;;;4974509;28;20270;-85
2023/09/09 09:15:15;;;;;;;15.97;6.83;;;21.70;99.90;;;;;;4974460;28;20256;-85
2023/09/09 09:17:42;;;;;;;16.37;7.17;;;21.90;99.90;;;;;;4974850;28;20201;-85
2023/09/09 09:20:28;;;;;;;14.67;7.80;;;21.90;99.90;;;;;;4975689;28;20357;-80
2023/09/09 09:22:59;;;;;;;12.47;7.17;;;22.10;99.90;;;;;;4978704;28;20205;-81
2023/09/09 09:25:25;;;;;;;12.03;7.57;;;22.30;99.90;;;;;;4978710;28;20174;-80
2023/09/09 09:27:50;;;;;;;10.97;7.13;;;22.40;99.90;;;;;;4980703;28;20217;-81
2023/09/09 09:30:23;;;;;;;11.17;6.73;;;22.40;99.90;;;;;;4978992;28;20194;-84
2023/09/09 09:32:53;;;;;;;10.13;6.50;;;22.50;99.90;;;;;;4974536;28;20214;-86
2023/09/09 09:35:27;;;;;;;18.87;7.43;;;22.60;99.90;;;;;;4973271;28;20699;-89
2023/09/09 09:37:57;;;;;;;14.07;7.00;;;22.70;99.90;;;;;;4972960;28;20225;-86
2023/09/09 09:40:23;;;;;;;9.93;6.87;;;22.70;99.90;;;;;;4976823;28;20173;-86
2023/09/09 09:42:50;;;;;;;16.23;7.57;;;22.80;99.90;;;;;;4973549;28;20178;-86
2023/09/09 09:45:16;;;;;;;14.23;7.57;;;22.90;99.90;;;;;;4974775;28;20179;-86
2023/09/09 09:47:48;;;;;;;21.73;8.23;;;23.20;99.90;;;;;;4975115;28;20185;-85
2023/09/09 09:50:22;;;;;;;13.57;7.57;;;23.40;1.00;;;;;;4975155;28;20225;-85
2023/09/09 09:52:58;;;;;;;12.93;7.00;;;23.50;1.00;;;;;;4977683;28;20617;-85
2023/09/09 09:55:25;;;;;;;18.63;7.97;;;23.50;1.00;;;;;;4977168;28;20212;-85
2023/09/09 09:57:57;;;;;;;13.00;7.40;;;23.60;1.00;;;;;;4978776;28;20178;-85
2023/09/09 10:00:24;;;;;;;10.25;7.63;;;23.80;1.00;;;;;;4977089;28;20181;-85
2023/09/09 10:02:56;;;;;;;13.05;7.43;;;23.90;1.00;;;;;;4976755;28;20210;-85
2023/09/09 10:05:26;;;;;;;16.52;7.55;;;24.00;1.00;;;;;;4981356;28;20197;-82
2023/09/09 10:08:25;;;;;;;11.30;7.25;;;23.90;1.00;;;;;;4980894;28;20201;-83
2023/09/09 10:11:10;;;;;;;14.25;8.43;;;23.90;1.00;;;;;;4980806;28;20202;-82
2023/09/09 10:13:54;;;;;;;15.68;7.65;;;24.00;1.00;;;;;;4982610;28;20197;-83
2023/09/09 10:16:21;;;;;;;13.02;7.18;;;24.20;1.00;;;;;;4982700;28;20240;-83
2023/09/09 10:18:49;;;;;;;11.25;6.95;;;24.40;1.00;;;;;;4981922;28;20182;-83
2023/09/09 10:21:17;;;;;;;12.45;6.70;;;24.50;1.00;;;;;;4982768;28;20340;-82
2023/09/09 10:23:45;;;;;;;12.32;6.45;;;24.50;1.00;;;;;;4981632;28;20556;-83
2023/09/09 10:26:11;;;;;;;16.23;7.07;;;24.40;1.00;;;;;;4979381;28;20178;-85
2023/09/09 10:28:38;;;;;;;11.52;6.90;;;24.50;1.00;;;;;;4976390;28;20642;-85
2023/09/09 10:31:05;;;;;;;15.43;7.03;;;24.90;1.00;;;;;;4977224;28;20202;-86
2023/09/09 10:33:31;;;;;;;13.48;7.18;;;24.80;1.00;;;;;;4975792;28;20700;-85
2023/09/09 10:35:58;;;;;;;14.00;7.30;;;24.90;1.00;;;;;;4975872;28;20182;-85
2023/09/09 10:38:25;;;;;;;14.75;7.20;;;24.90;1.00;;;;;;4975689;28;20560;-85
2023/09/09 10:40:52;;;;;;;10.73;7.47;;;25.20;99.90;;;;;;4975682;28;20217;-86
2023/09/09 10:43:17;;;;;;;17.42;7.65;;;25.30;99.90;;;;;;4975809;28;20178;-85
2023/09/09 10:45:44;;;;;;;18.90;7.50;;;25.40;99.90;;;;;;4975904;28;20205;-85
2023/09/09 10:48:10;;;;;;;12.88;7.90;;;25.20;99.90;;;;;;4975991;28;20189;-85
2023/09/09 10:50:40;;;;;;;13.93;6.40;;;25.50;99.90;;;;;;4976164;28;20642;-85
2023/09/09 10:53:18;;;;;;;12.57;7.05;;;25.40;1.00;;;;;;4976914;28;20225;-86
2023/09/09 10:55:45;;;;;;;18.58;7.07;;;25.60;99.90;;;;;;4976524;28;20174;-86
2023/09/09 10:58:15;;;;;;;15.65;7.32;;;25.60;99.90;;;;;;4976024;28;20653;-85
2023/09/09 11:00:43;;;;;;;12.10;7.32;;;25.70;99.90;;;;;;4976894;28;20192;-85
2023/09/09 11:03:25;;;;;;;13.15;7.68;;;25.80;99.90;;;;;;4975698;28;20181;-85
2023/09/09 11:06:07;;;;;;;13.73;7.47;;;25.80;99.90;;;;;;4975899;28;20167;-85
2023/09/09 11:08:46;;;;;;;17.98;7.25;;;25.80;99.90;;;;;;4977890;28;20217;-86
2023/09/09 11:11:16;;;;;;;18.55;7.50;;;25.90;1.00;;;;;;4991782;28;20190;-87
2023/09/09 11:13:43;;;;;;;17.02;7.40;;;25.90;1.00;;;;;;4978032;28;20265;-87
2023/09/09 11:16:27;;;;;;;21.05;8.45;;;25.80;99.90;;;;;;4976684;28;20170;-87
2023/09/09 11:18:54;;;;;;;20.50;8.13;;;25.90;99.90;;;;;;4976556;28;20259;-87
2023/09/09 11:21:23;;;;;;;14.30;7.38;;;26.10;99.90;;;;;;4976099;28;20198;-87
2023/09/09 11:23:50;;;;;;;15.18;7.10;;;26.10;99.90;;;;;;4975917;28;20229;-83
2023/09/09 11:26:16;;;;;;;12.23;7.22;;;26.20;99.90;;;;;;4980357;28;20653;-82
2023/09/09 11:28:45;;;;;;;19.48;7.28;;;26.30;99.90;;;;;;4980417;28;20190;-82
2023/09/09 11:31:12;;;;;;;8.88;6.85;;;26.40;99.90;;;;;;4980582;28;20190;-83
2023/09/09 11:33:38;;;;;;;16.50;8.35;;;26.40;99.90;;;;;;4978638;28;20217;-82
2023/09/09 11:36:04;;;;;;;15.25;7.50;;;26.60;99.90;;;;;;4979064;28;20630;-83
2023/09/09 11:38:31;;;;;;;15.38;7.30;;;26.60;99.90;;;;;;4982735;28;20587;-82
2023/09/09 11:40:57;;;;;;;15.55;7.05;;;26.80;99.90;;;;;;4981812;28;20193;-84
2023/09/09 11:43:22;;;;;;;16.48;6.95;;;26.60;99.90;;;;;;4980919;28;20653;-83
2023/09/09 11:45:48;;;;;;;17.30;7.45;;;26.80;99.90;;;;;;4979043;28;20202;-83
2023/09/09 11:48:14;;;;;;;15.35;7.78;;;26.70;99.90;;;;;;4979515;28;20601;-83
2023/09/09 11:50:41;;;;;;;14.45;7.53;;;26.80;99.90;;;;;;4978550;28;20209;-83
2023/09/09 11:53:07;;;;;;;20.60;6.80;;;26.80;99.90;;;;;;4979268;28;20217;-83
2023/09/09 11:55:33;;;;;;;13.43;6.25;;;27.00;99.90;;;;;;4978496;28;20174;-84
2023/09/09 11:57:59;;;;;;;13.60;6.78;;;26.90;99.90;;;;;;4978986;28;20602;-82
2023/09/09 12:00:24;;;;;;;18.85;6.85;;;27.10;99.90;;;;;;4978789;28;20175;-83
2023/09/09 12:02:50;;;;;;;14.02;7.25;;;27.10;99.90;;;;;;4978486;28;20214;-82
2023/09/09 12:05:15;;;;;;;15.40;7.05;;;27.20;99.90;;;;;;4978245;28;20178;-82
2023/09/09 12:07:42;;;;;;;12.70;6.07;;;27.30;99.90;;;;;;4977656;28;20181;-82
2023/09/09 12:10:12;;;;;;;18.10;6.25;;;27.20;99.90;;;;;;4978591;28;20177;-82
2023/09/09 12:12:40;;;;;;;19.65;6.68;;;27.30;91.90;;;;;;4976938;28;20198;-82
2023/09/09 12:15:07;;;;;;;19.05;6.30;;;27.30;87.80;;;;;;4978135;28;20257;-82
2023/09/09 12:17:33;;;;;;;14.35;6.15;;;27.50;1.00;;;;;;4976878;28;20178;-82
2023/09/09 12:20:03;;;;;;;11.15;5.85;;;27.50;28.70;;;;;;4978624;28;20170;-83
2023/09/09 12:22:34;;;;;;;8.50;5.80;;;27.70;99.40;;;;;;4977829;28;20226;-82
2023/09/09 12:24:59;;;;;;;15.07;6.35;;;27.70;1.00;;;;;;4977644;28;20654;-82
2023/09/09 12:27:42;;;;;;;11.32;5.40;;;27.70;1.00;;;;;;4978645;28;20251;-81
2023/09/09 12:30:36;;;;;;;12.63;5.10;;;27.70;1.00;;;;;;4977975;28;20653;-82
2023/09/09 12:33:13;;;;;;;10.50;5.70;;;27.70;12.60;;;;;;4977698;28;20198;-82
2023/09/09 12:35:47;;;;;;;13.95;5.22;;;27.70;1.00;;;;;;4978602;28;20186;-82
2023/09/09 12:38:14;;;;;;;10.43;5.78;;;27.90;1.00;;;;;;4978023;28;20171;-82
2023/09/09 12:40:45;;;;;;;19.13;7.20;;;27.80;1.00;;;;;;4978669;28;20194;-82
2023/09/09 12:43:11;;;;;;;22.17;6.28;;;27.90;1.00;;;;;;4979873;28;20519;-82